Time;durP1;ratioP1;P1;durP2;ratioP2;P2;SDS_P1;SDS_P2;PMS_P1;PMS_P2;Temp;Humidity;BMP_temperature;BMP_pressure;BME280_temperature;BME280_humidity;BME280_pressure;Samples;Min_cycle;Max_cycle;Signal;HPM_P1;HPM_P2
2022/07/28 00:01:21;;;;;;;4.80;4.50;;;35.40;56.70;;;;;;5048488;28;21012;-67
2022/07/28 00:03:52;;;;;;;5.30;4.90;;;35.30;57.90;;;;;;5065378;28;20808;-67
2022/07/28 00:06:24;;;;;;;5.80;5.40;;;35.30;57.40;;;;;;5064228;28;20452;-68
2022/07/28 00:08:55;;;;;;;4.97;4.63;;;35.30;58.00;;;;;;5064911;28;20446;-67
2022/07/28 00:11:26;;;;;;;4.57;4.27;;;35.30;56.80;;;;;;5063895;28;20459;-67
2022/07/28 00:13:57;;;;;;;4.80;4.50;;;35.40;57.40;;;;;;5064765;28;20448;-66
2022/07/28 00:16:27;;;;;;;5.00;4.70;;;35.40;57.40;;;;;;5064104;28;20824;-67
2022/07/28 00:18:58;;;;;;;5.20;4.70;;;35.40;57.40;;;;;;5061461;28;20456;-67
2022/07/28 00:21:31;;;;;;;6.50;6.00;;;35.30;57.20;;;;;;5061756;28;20460;-67
2022/07/28 00:24:01;;;;;;;4.90;4.60;;;35.30;57.10;;;;;;5060996;28;20471;-67
2022/07/28 00:26:32;;;;;;;5.10;4.80;;;35.20;55.80;;;;;;5062880;28;20535;-67
2022/07/28 00:29:03;;;;;;;5.23;4.83;;;35.20;58.30;;;;;;5062830;28;20836;-67
2022/07/28 00:31:34;;;;;;;5.03;4.67;;;35.20;58.10;;;;;;5061778;28;20566;-68
2022/07/28 00:34:05;;;;;;;5.83;5.33;;;35.10;56.80;;;;;;5049744;28;20870;-67
2022/07/28 00:36:37;;;;;;;5.10;4.80;;;35.10;58.80;;;;;;5062413;28;20488;-67
2022/07/28 00:39:08;;;;;;;4.87;4.47;;;35.10;59.10;;;;;;5071108;28;20538;-67
2022/07/28 00:41:38;;;;;;;4.97;4.63;;;35.00;58.40;;;;;;5063460;28;20460;-66
2022/07/28 00:44:11;;;;;;;4.57;4.27;;;35.00;58.90;;;;;;5059398;28;20464;-66
2022/07/28 00:46:42;;;;;;;5.53;4.30;;;35.10;57.80;;;;;;5065602;28;20464;-67
2022/07/28 00:49:15;;;;;;;4.03;3.83;;;35.00;57.70;;;;;;5072126;28;20452;-67
2022/07/28 00:51:48;;;;;;;5.63;5.23;;;35.00;57.20;;;;;;5062365;28;20452;-67
2022/07/28 00:54:20;;;;;;;4.33;4.03;;;34.90;56.50;;;;;;5052719;28;20467;-68
2022/07/28 00:56:50;;;;;;;4.67;4.37;;;34.90;58.10;;;;;;5052673;28;20496;-68
2022/07/28 00:59:21;;;;;;;4.30;4.10;;;34.80;58.70;;;;;;5075984;28;20460;-67
2022/07/28 01:01:52;;;;;;;4.20;3.90;;;34.80;59.10;;;;;;5061532;28;20471;-67
2022/07/28 01:04:24;;;;;;;5.20;4.80;;;34.70;59.00;;;;;;5062988;28;20993;-67
2022/07/28 01:07:08;;;;;;;4.63;4.30;;;34.60;59.20;;;;;;5073056;28;20451;-67
2022/07/28 01:09:51;;;;;;;4.50;4.20;;;34.60;59.20;;;;;;5069026;28;20483;-68
2022/07/28 01:12:38;;;;;;;4.37;4.07;;;34.40;59.40;;;;;;5066323;28;20463;-67
2022/07/28 01:15:18;;;;;;;4.47;4.17;;;34.30;58.90;;;;;;5059317;28;20464;-67
2022/07/28 01:17:59;;;;;;;4.00;3.70;;;34.30;59.20;;;;;;5065297;28;20492;-69
2022/07/28 01:20:36;;;;;;;4.77;4.37;;;34.40;61.30;;;;;;5065329;28;20452;-68
2022/07/28 01:23:25;;;;;;;4.57;4.27;;;34.40;61.10;;;;;;5066351;28;20469;-68
2022/07/28 01:26:13;;;;;;;4.60;4.30;;;34.40;60.00;;;;;;5062662;28;20639;-67
2022/07/28 01:29:00;;;;;;;4.50;4.10;;;34.30;58.80;;;;;;5075526;28;20460;-67
2022/07/28 01:31:40;;;;;;;4.23;3.93;;;34.20;59.80;;;;;;5059072;28;20459;-70
2022/07/28 01:34:17;;;;;;;4.37;4.07;;;34.10;61.60;;;;;;5066614;28;20467;-68
2022/07/28 01:36:53;;;;;;;4.40;4.10;;;34.10;57.30;;;;;;5069010;28;20508;-68
2022/07/28 01:39:26;;;;;;;4.13;3.83;;;34.00;59.30;;;;;;5065745;28;20462;-67
2022/07/28 01:41:58;;;;;;;4.50;4.20;;;34.00;60.00;;;;;;5051594;28;20444;-68
2022/07/28 01:44:30;;;;;;;4.30;4.00;;;33.90;61.20;;;;;;5061896;28;20479;-67
2022/07/28 01:47:06;;;;;;;4.30;4.00;;;33.90;62.50;;;;;;5067536;28;20448;-66
2022/07/28 01:49:38;;;;;;;4.00;3.70;;;33.90;61.10;;;;;;5061174;28;20481;-66
2022/07/28 01:52:10;;;;;;;4.40;4.10;;;33.90;61.80;;;;;;5061865;28;20550;-66
2022/07/28 01:54:46;;;;;;;4.53;4.23;;;33.70;61.10;;;;;;5060691;28;20468;-65
2022/07/28 01:57:18;;;;;;;4.50;4.20;;;33.60;63.30;;;;;;5060490;28;20549;-66
2022/07/28 01:59:51;;;;;;;4.20;3.90;;;33.50;64.20;;;;;;5062187;28;20471;-67
2022/07/28 02:02:25;;;;;;;4.37;4.07;;;33.40;64.70;;;;;;5061442;28;20470;-66
2022/07/28 02:04:58;;;;;;;4.33;4.03;;;33.30;65.50;;;;;;5063151;28;20593;-66
2022/07/28 02:07:30;;;;;;;3.90;3.60;;;33.20;63.20;;;;;;5065875;28;20463;-66
2022/07/28 02:10:03;;;;;;;3.60;3.40;;;33.10;65.20;;;;;;5063903;28;20454;-66
2022/07/28 02:12:36;;;;;;;4.00;3.73;;;33.10;63.70;;;;;;5060742;28;20487;-66
2022/07/28 02:15:10;;;;;;;4.10;3.80;;;33.10;63.00;;;;;;5061805;28;20485;-66
2022/07/28 02:17:45;;;;;;;4.07;3.77;;;33.00;64.20;;;;;;5076440;28;20496;-66
2022/07/28 02:20:18;;;;;;;3.60;3.40;;;33.00;63.90;;;;;;5079426;28;20466;-65
2022/07/28 02:22:50;;;;;;;4.07;3.77;;;32.90;63.50;;;;;;5059944;28;20463;-66
2022/07/28 02:25:22;;;;;;;3.67;3.47;;;32.80;63.30;;;;;;5061295;28;20458;-65
2022/07/28 02:27:57;;;;;;;3.80;3.53;;;32.70;64.90;;;;;;5074374;28;20488;-65
2022/07/28 02:30:34;;;;;;;3.93;3.63;;;32.50;66.00;;;;;;5059120;28;20489;-65
2022/07/28 02:33:13;;;;;;;3.93;3.63;;;32.40;66.80;;;;;;5059409;28;20456;-65
2022/07/28 02:35:49;;;;;;;4.50;4.20;;;32.20;68.20;;;;;;5059585;28;20457;-65
2022/07/28 02:38:27;;;;;;;4.43;4.03;;;32.10;68.80;;;;;;5065160;28;20539;-65
2022/07/28 02:41:04;;;;;;;3.93;3.63;;;32.00;70.10;;;;;;5069176;28;20461;-65
2022/07/28 02:43:39;;;;;;;3.70;3.50;;;31.90;69.80;;;;;;5064809;28;20453;-65
2022/07/28 02:46:24;;;;;;;3.80;3.50;;;31.90;68.90;;;;;;5064388;28;20470;-66
2022/07/28 02:49:05;;;;;;;4.13;3.83;;;31.90;68.50;;;;;;5081727;28;20447;-65
2022/07/28 02:51:37;;;;;;;3.80;3.50;;;31.90;68.30;;;;;;5062373;28;20531;-66
2022/07/28 02:54:09;;;;;;;3.63;3.43;;;31.90;68.70;;;;;;5066028;28;20468;-65
2022/07/28 02:56:42;;;;;;;3.57;3.37;;;31.70;68.10;;;;;;5067720;28;20492;-64
2022/07/28 02:59:24;;;;;;;4.27;3.97;;;31.70;68.80;;;;;;5067967;28;20537;-65
2022/07/28 03:01:56;;;;;;;3.10;2.90;;;31.60;68.40;;;;;;5069953;28;20477;-66
2022/07/28 03:07:17;;;;;;;11.53;10.53;;;31.40;70.00;;;;;;5064276;28;20463;-66
2022/07/28 03:09:50;;;;;;;4.77;4.47;;;31.20;71.00;;;;;;5063674;28;20983;-65
2022/07/28 03:12:21;;;;;;;4.40;4.00;;;31.10;70.60;;;;;;5063620;28;20476;-65
2022/07/28 03:14:51;;;;;;;4.30;3.90;;;30.90;71.80;;;;;;5065336;28;20454;-65
2022/07/28 03:17:22;;;;;;;4.37;4.03;;;30.80;71.40;;;;;;5065180;28;20504;-65
2022/07/28 03:19:55;;;;;;;4.07;3.77;;;30.70;72.30;;;;;;5065460;28;20469;-65
2022/07/28 03:22:26;;;;;;;3.70;3.40;;;30.50;73.20;;;;;;5064652;28;20465;-65
2022/07/28 03:24:58;;;;;;;3.70;3.40;;;30.40;74.40;;;;;;5064462;28;20463;-65
2022/07/28 03:27:31;;;;;;;4.40;4.00;;;30.30;74.50;;;;;;5065018;28;20492;-65
2022/07/28 03:30:07;;;;;;;3.80;3.50;;;30.20;75.50;;;;;;5064922;28;20477;-65
2022/07/28 03:32:45;;;;;;;4.00;3.70;;;30.00;74.00;;;;;;5075594;28;20470;-65
2022/07/28 03:35:18;;;;;;;3.37;3.17;;;30.10;73.30;;;;;;5064933;28;20446;-64
2022/07/28 03:37:54;;;;;;;4.03;3.73;;;30.20;75.50;;;;;;5060583;28;20492;-65
2022/07/28 03:40:28;;;;;;;4.17;3.60;;;30.10;74.20;;;;;;5061576;28;20808;-65
2022/07/28 03:43:02;;;;;;;3.90;3.60;;;30.00;75.50;;;;;;5080134;28;20468;-65
2022/07/28 03:45:35;;;;;;;3.73;3.50;;;29.90;76.10;;;;;;5062962;28;20473;-65
2022/07/28 03:48:09;;;;;;;3.90;3.60;;;29.80;77.80;;;;;;5065384;28;20579;-65
2022/07/28 03:50:42;;;;;;;3.80;3.50;;;29.50;80.70;;;;;;5060450;28;20477;-65
2022/07/28 03:53:20;;;;;;;3.30;3.00;;;29.30;82.60;;;;;;5061032;28;20462;-64
2022/07/28 03:55:51;;;;;;;3.33;3.03;;;29.10;81.20;;;;;;5063227;28;20454;-64
2022/07/28 03:58:23;;;;;;;3.10;2.90;;;29.00;73.80;;;;;;5064181;28;20501;-64
2022/07/28 04:01:00;;;;;;;3.00;2.80;;;28.90;74.20;;;;;;5063291;28;20508;-65
2022/07/28 04:03:31;;;;;;;2.70;2.47;;;28.80;75.40;;;;;;5061031;28;20526;-64
2022/07/28 04:06:14;;;;;;;3.40;3.10;;;28.70;74.50;;;;;;5061097;28;20546;-64
2022/07/28 04:08:45;;;;;;;2.60;2.40;;;28.60;74.00;;;;;;5067054;28;20541;-64
2022/07/28 04:11:16;;;;;;;2.70;2.50;;;28.40;77.20;;;;;;5073346;28;20464;-66
2022/07/28 04:13:47;;;;;;;2.33;2.13;;;28.30;75.70;;;;;;5071368;28;20469;-65
2022/07/28 04:16:17;;;;;;;4.80;2.60;;;28.20;83.00;;;;;;5067709;28;20457;-64
2022/07/28 04:18:51;;;;;;;2.30;2.10;;;28.10;77.10;;;;;;5064405;28;20495;-65
2022/07/28 04:21:23;;;;;;;2.70;2.50;;;27.90;78.80;;;;;;5060869;28;20466;-64
2022/07/28 04:23:54;;;;;;;2.63;2.43;;;27.80;82.10;;;;;;5063579;28;20536;-64
2022/07/28 04:26:30;;;;;;;2.50;2.30;;;27.70;85.70;;;;;;5061030;28;20466;-65
2022/07/28 04:29:01;;;;;;;2.60;2.40;;;27.60;84.10;;;;;;5065342;28;20452;-65
2022/07/28 04:31:32;;;;;;;3.37;2.00;;;27.50;85.60;;;;;;5066462;28;20526;-64
2022/07/28 04:34:03;;;;;;;2.00;1.90;;;27.40;86.30;;;;;;5065236;28;20495;-64
2022/07/28 04:36:40;;;;;;;2.60;2.40;;;27.30;85.00;;;;;;5061757;28;20470;-64
2022/07/28 04:39:11;;;;;;;3.17;2.33;;;27.20;84.50;;;;;;5057841;28;20602;-64
2022/07/28 04:41:42;;;;;;;2.37;2.17;;;27.10;84.40;;;;;;5064435;28;20457;-65
2022/07/28 04:44:13;;;;;;;2.13;2.00;;;27.10;83.00;;;;;;5062138;28;20529;-65
2022/07/28 04:46:44;;;;;;;2.60;2.40;;;27.00;83.20;;;;;;5061173;28;20475;-65
2022/07/28 04:49:15;;;;;;;2.37;1.70;;;27.00;83.60;;;;;;5060991;28;20615;-64
2022/07/28 04:51:49;;;;;;;2.10;2.00;;;26.90;83.00;;;;;;5063083;28;20466;-65
2022/07/28 04:54:21;;;;;;;2.33;2.13;;;27.00;84.10;;;;;;5063218;28;20453;-64
2022/07/28 04:56:55;;;;;;;1.90;1.80;;;27.00;83.30;;;;;;5065801;28;20511;-64
2022/07/28 04:59:26;;;;;;;2.20;1.90;;;27.00;84.00;;;;;;5072185;28;20501;-63
2022/07/28 05:01:59;;;;;;;2.43;2.30;;;27.00;84.00;;;;;;5069126;28;20519;-65
2022/07/28 05:04:29;;;;;;;2.10;2.00;;;26.90;84.20;;;;;;5062948;28;20459;-64
2022/07/28 05:07:02;;;;;;;2.20;2.00;;;26.90;84.50;;;;;;5060670;28;20575;-64
2022/07/28 05:09:41;;;;;;;2.40;2.20;;;26.80;84.70;;;;;;5067251;28;20536;-64
2022/07/28 05:12:12;;;;;;;2.47;2.27;;;26.70;85.00;;;;;;5076330;28;20853;-64
2022/07/28 05:14:43;;;;;;;2.10;1.90;;;26.60;87.20;;;;;;5065984;28;20461;-64
2022/07/28 05:17:14;;;;;;;2.17;1.97;;;26.50;89.90;;;;;;5068335;28;20452;-64
2022/07/28 05:19:44;;;;;;;2.40;2.20;;;26.40;90.70;;;;;;5070830;28;20483;-65
2022/07/28 05:22:17;;;;;;;2.10;1.90;;;26.30;90.80;;;;;;5059296;28;20539;-65
2022/07/28 05:24:48;;;;;;;1.60;1.50;;;26.20;91.30;;;;;;5077101;28;20476;-65
2022/07/28 05:27:19;;;;;;;2.00;1.80;;;26.10;91.20;;;;;;5074362;28;20547;-65
2022/07/28 05:29:50;;;;;;;2.20;2.03;;;26.00;91.90;;;;;;5061185;28;20493;-65
2022/07/28 05:32:21;;;;;;;2.33;2.13;;;26.00;92.00;;;;;;5060877;28;20492;-65
2022/07/28 05:34:52;;;;;;;2.20;2.10;;;25.90;92.50;;;;;;5082392;28;20455;-65
2022/07/28 05:37:24;;;;;;;2.30;2.10;;;25.80;92.10;;;;;;5061904;28;20467;-65
2022/07/28 05:39:55;;;;;;;2.37;2.17;;;25.70;92.10;;;;;;5067890;28;20507;-65
2022/07/28 05:42:27;;;;;;;2.00;1.83;;;25.70;92.50;;;;;;5082044;28;20455;-65
2022/07/28 05:44:58;;;;;;;2.50;2.30;;;25.70;93.20;;;;;;5082952;28;20509;-64
2022/07/28 05:47:29;;;;;;;1.70;1.60;;;25.60;94.00;;;;;;5075297;28;20454;-65
2022/07/28 05:50:03;;;;;;;2.30;2.10;;;25.50;94.30;;;;;;5061329;28;20469;-64
2022/07/28 05:52:35;;;;;;;1.93;1.83;;;25.40;94.90;;;;;;5058345;28;20483;-65
2022/07/28 05:55:08;;;;;;;2.20;2.00;;;25.40;94.50;;;;;;5074004;28;20466;-65
2022/07/28 05:57:39;;;;;;;2.50;2.30;;;25.30;95.10;;;;;;5068188;28;20509;-66
2022/07/28 06:00:13;;;;;;;2.27;2.13;;;25.30;95.80;;;;;;5070264;28;20486;-65
2022/07/28 06:02:46;;;;;;;2.30;2.10;;;25.30;95.40;;;;;;5062481;28;20456;-65
2022/07/28 06:05:17;;;;;;;2.00;1.80;;;25.30;95.50;;;;;;5047109;28;20448;-65
2022/07/28 06:07:51;;;;;;;1.93;1.73;;;25.20;95.70;;;;;;5062535;28;20458;-65
2022/07/28 06:10:23;;;;;;;2.77;2.50;;;25.10;96.40;;;;;;5071965;28;20469;-65
2022/07/28 06:12:56;;;;;;;1.93;1.70;;;25.00;96.50;;;;;;5061330;28;20458;-66
2022/07/28 06:15:28;;;;;;;2.57;2.10;;;25.00;97.10;;;;;;5062625;28;20516;-65
2022/07/28 06:17:59;;;;;;;1.90;1.80;;;25.00;97.20;;;;;;5069504;28;20587;-65
2022/07/28 06:20:30;;;;;;;3.83;3.00;;;24.90;96.90;;;;;;5070718;28;20496;-65
2022/07/28 06:23:02;;;;;;;2.00;1.90;;;24.90;97.40;;;;;;5067498;28;20457;-65
2022/07/28 06:25:33;;;;;;;2.40;1.80;;;24.80;98.00;;;;;;5063422;28;20485;-65
2022/07/28 06:28:04;;;;;;;2.40;1.80;;;24.80;97.60;;;;;;5060467;28;20773;-65
2022/07/28 06:30:35;;;;;;;2.13;1.93;;;24.80;99.10;;;;;;5068587;28;20460;-64
2022/07/28 06:33:06;;;;;;;2.60;2.40;;;24.70;98.50;;;;;;5061306;28;20479;-65
2022/07/28 06:35:41;;;;;;;2.50;2.20;;;24.60;99.10;;;;;;5060821;28;20449;-65
2022/07/28 06:38:21;;;;;;;2.40;2.10;;;24.60;99.90;;;;;;5061245;28;20491;-65
2022/07/28 06:40:52;;;;;;;2.23;2.03;;;24.50;99.20;;;;;;5066571;28;20504;-65
2022/07/28 06:43:23;;;;;;;2.13;1.93;;;24.50;99.10;;;;;;5068318;28;20497;-65
2022/07/28 06:45:54;;;;;;;2.30;2.10;;;24.50;99.90;;;;;;5062030;28;20472;-65
2022/07/28 06:48:24;;;;;;;2.30;2.10;;;24.40;99.90;;;;;;5061228;28;20482;-65
2022/07/28 06:50:58;;;;;;;1.80;1.70;;;24.40;99.90;;;;;;5071494;28;20535;-65
2022/07/28 06:53:31;;;;;;;2.37;2.07;;;24.40;99.90;;;;;;5062761;28;20464;-65
2022/07/28 06:56:03;;;;;;;1.90;1.80;;;24.40;99.90;;;;;;5063193;28;20466;-66
2022/07/28 06:58:34;;;;;;;2.17;2.00;;;24.30;99.90;;;;;;5067432;28;20458;-65
2022/07/28 07:01:06;;;;;;;2.80;2.20;;;24.20;99.90;;;;;;5067694;28;20808;-65
2022/07/28 07:03:37;;;;;;;2.43;2.10;;;24.20;99.90;;;;;;5067868;28;20490;-65
2022/07/28 07:06:09;;;;;;;2.57;2.10;;;24.10;99.90;;;;;;5059256;28;20788;-65
2022/07/28 07:08:41;;;;;;;2.00;1.90;;;24.10;99.90;;;;;;5061224;28;20558;-65
2022/07/28 07:11:12;;;;;;;2.50;2.07;;;24.00;99.90;;;;;;5073483;28;20459;-65
2022/07/28 07:13:43;;;;;;;2.30;2.10;;;24.00;99.90;;;;;;5067130;28;20452;-65
2022/07/28 07:16:14;;;;;;;1.93;1.73;;;24.00;99.90;;;;;;5067781;28;20523;-65
2022/07/28 07:18:47;;;;;;;2.83;2.07;;;23.90;99.90;;;;;;5055792;28;20528;-65
2022/07/28 07:21:17;;;;;;;2.33;2.17;;;23.80;99.90;;;;;;5056477;28;20519;-65
2022/07/28 07:23:51;;;;;;;2.10;2.00;;;23.80;99.90;;;;;;5061158;28;20472;-65
2022/07/28 07:26:21;;;;;;;1.90;1.80;;;23.80;99.90;;;;;;5070886;28;20456;-65
2022/07/28 07:28:52;;;;;;;2.27;2.00;;;23.80;99.90;;;;;;5060076;28;20464;-65
2022/07/28 07:31:23;;;;;;;2.47;2.27;;;23.80;99.90;;;;;;5064290;28;20467;-65
2022/07/28 07:33:54;;;;;;;1.80;1.70;;;23.70;99.90;;;;;;5071865;28;20522;-65
2022/07/28 07:36:24;;;;;;;14.83;3.60;;;23.70;99.90;;;;;;5064996;28;20475;-64
2022/07/28 07:38:57;;;;;;;2.23;2.03;;;23.60;99.90;;;;;;5064462;28;20456;-65
2022/07/28 07:41:28;;;;;;;2.67;2.43;;;23.50;99.90;;;;;;5068523;28;20491;-64
2022/07/28 07:43:59;;;;;;;2.43;2.23;;;23.50;99.90;;;;;;5065410;28;20453;-65
2022/07/28 07:46:30;;;;;;;3.03;2.40;;;23.50;99.90;;;;;;5065254;28;20495;-65
2022/07/28 07:49:01;;;;;;;2.37;2.17;;;23.40;99.90;;;;;;5064474;28;20475;-64
2022/07/28 07:51:31;;;;;;;3.30;2.10;;;23.40;99.90;;;;;;5068033;28;20479;-65
2022/07/28 07:54:04;;;;;;;1.93;1.73;;;23.30;99.90;;;;;;5070642;28;20858;-64
2022/07/28 07:56:38;;;;;;;2.40;2.20;;;23.30;99.90;;;;;;5063460;28;20480;-65
2022/07/28 07:59:09;;;;;;;1.70;1.60;;;23.20;99.90;;;;;;5065361;28;20452;-65
2022/07/28 08:01:39;;;;;;;2.20;2.00;;;23.10;99.90;;;;;;5066672;28;20503;-65
2022/07/28 08:04:10;;;;;;;1.77;1.67;;;23.10;99.90;;;;;;5053099;28;20532;-64
2022/07/28 08:06:43;;;;;;;2.60;2.30;;;23.10;99.90;;;;;;5062011;28;20457;-64
2022/07/28 08:09:17;;;;;;;2.20;2.00;;;23.10;99.90;;;;;;5068788;28;20491;-65
2022/07/28 08:11:48;;;;;;;1.93;1.83;;;23.00;99.90;;;;;;5071262;28;20466;-64
2022/07/28 08:14:19;;;;;;;3.33;2.27;;;23.00;99.90;;;;;;5069211;28;20467;-65
2022/07/28 08:16:49;;;;;;;2.30;1.90;;;23.00;99.90;;;;;;5064522;28;20524;-64
2022/07/28 08:19:20;;;;;;;2.27;2.07;;;23.00;99.90;;;;;;5062642;28;20465;-64
2022/07/28 08:21:52;;;;;;;2.30;2.10;;;22.90;99.90;;;;;;5072183;28;20916;-65
2022/07/28 08:24:24;;;;;;;2.40;2.30;;;22.80;99.90;;;;;;5066209;28;20561;-64
2022/07/28 08:27:01;;;;;;;2.77;2.20;;;22.80;99.90;;;;;;5063540;28;20500;-65
2022/07/28 08:29:32;;;;;;;1.90;1.70;;;22.70;99.90;;;;;;5063881;28;20479;-64
2022/07/28 08:32:03;;;;;;;2.00;1.90;;;22.70;99.90;;;;;;5073419;28;21030;-64
2022/07/28 08:34:35;;;;;;;1.93;1.83;;;22.70;99.90;;;;;;5082874;28;20958;-64
2022/07/28 08:37:07;;;;;;;2.23;2.03;;;22.70;99.90;;;;;;5083068;28;20447;-64
2022/07/28 08:39:39;;;;;;;4.20;2.40;;;22.60;99.90;;;;;;5083445;28;20451;-64
2022/07/28 08:42:16;;;;;;;2.47;2.27;;;22.60;99.90;;;;;;5073296;28;20472;-65
2022/07/28 08:44:53;;;;;;;2.70;2.30;;;22.50;99.90;;;;;;5063484;28;20448;-64
2022/07/28 08:47:27;;;;;;;2.20;2.00;;;22.50;99.90;;;;;;5058318;28;20460;-64
2022/07/28 08:50:14;;;;;;;2.40;2.20;;;22.50;99.90;;;;;;5068907;28;20456;-64
2022/07/28 08:52:50;;;;;;;2.67;2.20;;;22.40;99.90;;;;;;5078359;28;20535;-64
2022/07/28 08:55:25;;;;;;;2.13;1.93;;;22.30;99.90;;;;;;5058950;28;20471;-64
2022/07/28 08:58:02;;;;;;;2.40;2.20;;;22.30;99.90;;;;;;5062403;28;20515;-64
2022/07/28 09:00:33;;;;;;;2.00;1.80;;;22.20;99.90;;;;;;5074483;28;20468;-65
2022/07/28 09:03:05;;;;;;;2.47;2.20;;;22.10;99.90;;;;;;5065144;28;20448;-64
2022/07/28 09:05:36;;;;;;;2.20;2.00;;;22.00;99.90;;;;;;5064938;28;20464;-65
2022/07/28 09:08:07;;;;;;;2.20;2.10;;;22.00;99.90;;;;;;5079778;28;20567;-64
2022/07/28 09:10:40;;;;;;;2.43;2.23;;;22.00;99.90;;;;;;5063612;28;20459;-65
2022/07/28 09:13:11;;;;;;;2.50;2.20;;;22.00;99.90;;;;;;5063014;28;20467;-64
2022/07/28 09:15:43;;;;;;;6.20;2.57;;;22.00;99.90;;;;;;5068768;28;20735;-64
2022/07/28 09:18:14;;;;;;;2.20;1.97;;;22.00;99.90;;;;;;5062174;28;20568;-64
2022/07/28 09:20:46;;;;;;;2.10;1.90;;;22.00;99.90;;;;;;5073461;28;20491;-64
2022/07/28 09:23:16;;;;;;;2.90;2.53;;;22.00;99.90;;;;;;5070458;28;20468;-64
2022/07/28 09:26:10;;;;;;;2.43;2.03;;;21.90;99.90;;;;;;5059644;28;20506;-64
2022/07/28 09:28:52;;;;;;;2.70;2.20;;;21.90;99.90;;;;;;5061816;28;20464;-65
2022/07/28 09:31:25;;;;;;;2.43;2.23;;;21.90;99.90;;;;;;5068393;28;20460;-65
2022/07/28 09:33:59;;;;;;;2.40;2.20;;;21.90;99.90;;;;;;5062412;28;20482;-65
2022/07/28 09:36:30;;;;;;;2.47;2.27;;;21.80;99.90;;;;;;5062023;28;20520;-65
2022/07/28 09:39:01;;;;;;;2.70;2.50;;;21.80;99.90;;;;;;5061898;28;20821;-65
2022/07/28 09:41:48;;;;;;;2.43;2.23;;;21.80;99.90;;;;;;5065990;28;21191;-64
2022/07/28 09:44:24;;;;;;;3.00;2.27;;;21.70;99.90;;;;;;5070173;28;20486;-65
2022/07/28 09:46:55;;;;;;;2.00;1.90;;;21.60;99.90;;;;;;5064451;28;20601;-64
2022/07/28 09:49:42;;;;;;;3.07;2.40;;;21.60;99.90;;;;;;5058121;28;20932;-65
2022/07/28 09:52:13;;;;;;;2.20;2.00;;;21.60;99.90;;;;;;5064624;28;20488;-65
2022/07/28 09:55:01;;;;;;;1.90;1.80;;;21.50;99.90;;;;;;5068886;28;20841;-64
2022/07/28 09:57:34;;;;;;;2.63;2.43;;;21.40;99.90;;;;;;5061644;28;20506;-64
2022/07/28 10:00:11;;;;;;;2.37;2.13;;;21.30;99.90;;;;;;5060404;28;20459;-65
2022/07/28 10:02:49;;;;;;;2.50;2.30;;;21.30;99.90;;;;;;5067602;28;21019;-64
2022/07/28 10:05:20;;;;;;;2.13;2.00;;;21.20;99.90;;;;;;5061799;28;20470;-64
2022/07/28 10:07:51;;;;;;;2.90;2.27;;;21.30;99.90;;;;;;5061486;28;20475;-64
2022/07/28 10:10:22;;;;;;;3.43;2.40;;;21.30;99.90;;;;;;5070554;28;20463;-64
2022/07/28 10:13:06;;;;;;;2.40;2.20;;;21.30;99.90;;;;;;5069740;28;20459;-64
2022/07/28 10:18:24;;;;;;;2.60;2.40;;;21.30;99.90;;;;;;5060956;28;20460;-63
2022/07/28 10:20:56;;;;;;;2.33;2.10;;;21.30;99.90;;;;;;5069646;28;20455;-64
2022/07/28 10:23:27;;;;;;;2.30;2.20;;;21.30;99.90;;;;;;5065232;28;20580;-64
2022/07/28 10:25:59;;;;;;;2.77;2.00;;;21.30;99.90;;;;;;5061188;28;20456;-64
2022/07/28 10:28:33;;;;;;;2.77;2.50;;;21.30;99.90;;;;;;5073478;28;20463;-65
2022/07/28 10:31:11;;;;;;;2.40;2.20;;;21.20;99.90;;;;;;5067344;28;20455;-63
2022/07/28 10:33:51;;;;;;;2.40;2.20;;;21.20;99.90;;;;;;5067759;28;20472;-66
2022/07/28 10:36:25;;;;;;;2.00;1.90;;;21.20;99.90;;;;;;5060949;28;20851;-66
2022/07/28 10:39:03;;;;;;;2.20;2.00;;;21.20;99.90;;;;;;5059678;28;20464;-65
2022/07/28 10:41:42;;;;;;;1.90;1.80;;;21.10;99.90;;;;;;5069239;28;20491;-64
2022/07/28 10:44:17;;;;;;;2.63;2.40;;;21.10;99.90;;;;;;5061168;28;20455;-64
2022/07/28 10:46:48;;;;;;;2.40;2.20;;;21.00;99.90;;;;;;5061823;28;20817;-64
2022/07/28 10:49:20;;;;;;;2.90;2.37;;;21.00;99.90;;;;;;5061133;28;20464;-64
2022/07/28 10:51:57;;;;;;;2.50;2.30;;;20.90;99.90;;;;;;5063598;28;20459;-64
2022/07/28 10:54:45;;;;;;;2.87;2.50;;;20.90;99.90;;;;;;5061502;28;20460;-64
2022/07/28 10:57:17;;;;;;;2.20;2.00;;;20.80;99.90;;;;;;5063473;28;20533;-64
2022/07/28 11:00:18;;;;;;;2.30;2.10;;;20.80;99.90;;;;;;5062003;28;20461;-64
2022/07/28 11:02:57;;;;;;;2.47;2.27;;;20.70;99.90;;;;;;5018207;28;20513;-64
2022/07/28 11:05:37;;;;;;;4.03;2.70;;;20.70;99.90;;;;;;5018177;28;20469;-65
2022/07/28 11:08:10;;;;;;;2.30;2.10;;;20.70;99.90;;;;;;5021976;28;20454;-64
2022/07/28 11:10:48;;;;;;;3.40;3.10;;;20.60;99.90;;;;;;5019859;28;20477;-64
2022/07/28 11:13:28;;;;;;;2.77;2.40;;;20.60;99.90;;;;;;5020670;28;21054;-64
2022/07/28 11:16:21;;;;;;;2.10;1.97;;;20.70;99.90;;;;;;5015115;28;20512;-64
2022/07/28 11:19:10;;;;;;;2.43;2.20;;;20.60;99.90;;;;;;5022407;28;20465;-65
2022/07/28 11:22:23;;;;;;;3.00;2.60;;;20.50;99.90;;;;;;5020895;28;20501;-64
2022/07/28 11:25:18;;;;;;;2.43;2.23;;;20.50;99.90;;;;;;5022295;28;20466;-64
2022/07/28 11:28:05;;;;;;;2.63;2.43;;;20.40;99.90;;;;;;5021845;28;20454;-64
2022/07/28 11:30:56;;;;;;;2.80;2.50;;;20.30;99.90;;;;;;5019544;28;20457;-64
2022/07/28 11:33:56;;;;;;;3.63;2.23;;;20.30;99.90;;;;;;5014422;28;20465;-64
2022/07/28 11:37:03;;;;;;;2.80;2.53;;;20.30;99.90;;;;;;5015936;28;20480;-64
2022/07/28 11:39:35;;;;;;;2.07;1.87;;;20.30;99.90;;;;;;5046880;28;20464;-64
2022/07/28 11:42:28;;;;;;;3.40;2.17;;;20.30;99.90;;;;;;5060265;28;20526;-64
2022/07/28 11:45:23;;;;;;;2.47;2.27;;;20.30;99.90;;;;;;5064906;28;20492;-64
2022/07/28 11:48:15;;;;;;;2.97;2.40;;;20.30;99.90;;;;;;5064403;28;20492;-64
2022/07/28 11:51:11;;;;;;;2.30;2.10;;;20.20;99.90;;;;;;5060787;28;20456;-64
2022/07/28 11:53:43;;;;;;;2.30;2.10;;;20.20;99.90;;;;;;5064325;28;20552;-64
2022/07/28 11:56:15;;;;;;;4.60;2.10;;;20.20;99.90;;;;;;5063391;28;20471;-64
2022/07/28 11:58:47;;;;;;;2.77;2.50;;;20.10;99.90;;;;;;5064566;28;20927;-64
2022/07/28 12:01:19;;;;;;;2.53;2.33;;;20.10;99.90;;;;;;5067559;28;20956;-64
2022/07/28 12:03:53;;;;;;;2.47;2.27;;;20.10;99.90;;;;;;5062187;28;20502;-64
2022/07/28 12:06:37;;;;;;;2.40;2.20;;;20.00;99.90;;;;;;5061855;28;20467;-64
2022/07/28 12:09:09;;;;;;;2.50;2.30;;;19.90;99.90;;;;;;5070207;28;20444;-64
2022/07/28 12:11:41;;;;;;;2.20;2.07;;;19.90;99.90;;;;;;5069057;28;20463;-63
2022/07/28 12:14:13;;;;;;;2.20;1.97;;;19.90;99.90;;;;;;5054989;28;20445;-64
2022/07/28 12:16:45;;;;;;;2.30;2.10;;;19.90;99.90;;;;;;5063299;28;20481;-64
2022/07/28 12:19:17;;;;;;;2.33;2.13;;;19.90;99.90;;;;;;5066967;28;20468;-63
2022/07/28 12:21:51;;;;;;;2.67;2.47;;;19.90;99.90;;;;;;5070203;28;20465;-64
2022/07/28 12:24:29;;;;;;;2.70;2.50;;;19.80;99.90;;;;;;5072894;28;20444;-63
2022/07/28 12:27:14;;;;;;;2.33;2.13;;;19.80;99.90;;;;;;5063671;28;20489;-64
2022/07/28 12:29:56;;;;;;;2.23;2.03;;;19.80;99.90;;;;;;5067382;28;20917;-64
2022/07/28 12:32:33;;;;;;;2.67;2.47;;;19.80;99.90;;;;;;5075582;28;20451;-63
2022/07/28 12:35:05;;;;;;;2.57;2.20;;;19.70;99.90;;;;;;5063640;28;20463;-63
2022/07/28 12:37:37;;;;;;;2.97;2.67;;;19.70;99.90;;;;;;5068147;28;20475;-64
2022/07/28 12:40:11;;;;;;;2.57;2.13;;;19.70;99.90;;;;;;5065281;28;20453;-64
2022/07/28 12:42:42;;;;;;;2.63;2.43;;;19.70;99.90;;;;;;5078189;28;20822;-63
2022/07/28 12:45:13;;;;;;;2.17;2.07;;;19.70;99.90;;;;;;5062979;28;20453;-64
2022/07/28 12:47:44;;;;;;;2.90;2.60;;;19.60;99.90;;;;;;5063823;28;20475;-63
2022/07/28 12:50:17;;;;;;;2.93;2.50;;;19.60;99.90;;;;;;5065963;28;20487;-63
2022/07/28 12:53:05;;;;;;;2.53;2.33;;;19.50;99.90;;;;;;5072666;28;20472;-63
2022/07/28 12:55:37;;;;;;;2.30;2.07;;;19.50;99.90;;;;;;5058938;28;20458;-63
2022/07/28 12:58:08;;;;;;;2.30;2.10;;;19.50;99.90;;;;;;5061068;28;20492;-64
2022/07/28 13:00:49;;;;;;;2.30;2.03;;;19.60;99.90;;;;;;5063331;28;20427;-64
2022/07/28 13:03:24;;;;;;;2.60;2.33;;;19.60;99.90;;;;;;5053646;28;20516;-64
2022/07/28 13:06:02;;;;;;;2.60;2.40;;;19.60;99.90;;;;;;5061830;28;20596;-63
2022/07/28 13:08:43;;;;;;;4.10;2.83;;;19.50;99.90;;;;;;5081575;28;20448;-63
2022/07/28 13:11:15;;;;;;;3.10;2.80;;;19.60;99.90;;;;;;5060800;28;20514;-63
2022/07/28 13:14:05;;;;;;;2.30;2.10;;;19.60;99.90;;;;;;5062692;28;20613;-63
2022/07/28 13:16:36;;;;;;;2.80;2.60;;;19.60;99.90;;;;;;5062400;28;20471;-64
2022/07/28 13:19:09;;;;;;;2.47;2.20;;;19.60;99.90;;;;;;5063181;28;20442;-65
2022/07/28 13:21:41;;;;;;;2.80;2.20;;;19.60;99.90;;;;;;5063212;28;20468;-63
2022/07/28 13:24:30;;;;;;;3.20;2.60;;;19.70;99.90;;;;;;5071158;28;20462;-63
2022/07/28 13:27:03;;;;;;;2.63;2.43;;;19.70;99.90;;;;;;5082048;28;20438;-63
2022/07/28 13:29:37;;;;;;;2.57;2.40;;;19.70;99.90;;;;;;5082271;28;20452;-63